sensor_id;sensor_type;location;lat;lon;timestamp;P1;durP1;ratioP1;P2;durP2;ratioP2
70997;SDS011;58663;52.040;4.634;2022-09-09T00:04:40;10.05;;;4.25;;
70997;SDS011;58663;52.040;4.634;2022-09-09T00:09:49;6.60;;;4.10;;
70997;SDS011;58663;52.040;4.634;2022-09-09T00:12:26;5.10;;;3.75;;
70997;SDS011;58663;52.040;4.634;2022-09-09T00:15:34;9.35;;;4.78;;
70997;SDS011;58663;52.040;4.634;2022-09-09T00:18:15;9.27;;;4.78;;
70997;SDS011;58663;52.040;4.634;2022-09-09T00:28:18;9.95;;;5.45;;
70997;SDS011;58663;52.040;4.634;2022-09-09T00:30:45;7.60;;;5.05;;
70997;SDS011;58663;52.040;4.634;2022-09-09T00:33:14;12.43;;;5.88;;
70997;SDS011;58663;52.040;4.634;2022-09-09T00:35:56;11.48;;;6.25;;
70997;SDS011;58663;52.040;4.634;2022-09-09T00:38:36;9.85;;;5.60;;
70997;SDS011;58663;52.040;4.634;2022-09-09T00:44:03;9.88;;;5.90;;
70997;SDS011;58663;52.040;4.634;2022-09-09T00:46:44;10.50;;;5.88;;
70997;SDS011;58663;52.040;4.634;2022-09-09T00:49:36;10.50;;;6.22;;
70997;SDS011;58663;52.040;4.634;2022-09-09T00:52:18;10.23;;;6.78;;
70997;SDS011;58663;52.040;4.634;2022-09-09T00:57:35;11.93;;;7.38;;
70997;SDS011;58663;52.040;4.634;2022-09-09T01:05:55;13.85;;;7.05;;
70997;SDS011;58663;52.040;4.634;2022-09-09T01:11:15;11.52;;;7.55;;
70997;SDS011;58663;52.040;4.634;2022-09-09T01:13:53;16.60;;;7.85;;
70997;SDS011;58663;52.040;4.634;2022-09-09T01:16:24;12.27;;;8.13;;
70997;SDS011;58663;52.040;4.634;2022-09-09T01:18:51;17.10;;;7.82;;
70997;SDS011;58663;52.040;4.634;2022-09-09T01:24:27;10.30;;;6.32;;
70997;SDS011;58663;52.040;4.634;2022-09-09T01:26:56;11.32;;;6.95;;
70997;SDS011;58663;52.040;4.634;2022-09-09T01:29:24;10.40;;;7.13;;
70997;SDS011;58663;52.040;4.634;2022-09-09T01:31:54;12.65;;;6.78;;
70997;SDS011;58663;52.040;4.634;2022-09-09T01:34:23;10.52;;;6.55;;
70997;SDS011;58663;52.040;4.634;2022-09-09T01:39:27;11.73;;;6.55;;
70997;SDS011;58663;52.040;4.634;2022-09-09T01:41:53;10.07;;;6.32;;
70997;SDS011;58663;52.040;4.634;2022-09-09T01:44:20;8.63;;;6.15;;
70997;SDS011;58663;52.040;4.634;2022-09-09T01:46:45;9.10;;;6.13;;
70997;SDS011;58663;52.040;4.634;2022-09-09T01:49:11;10.10;;;5.50;;
70997;SDS011;58663;52.040;4.634;2022-09-09T01:51:37;9.15;;;6.00;;
70997;SDS011;58663;52.040;4.634;2022-09-09T01:54:04;9.80;;;5.53;;
70997;SDS011;58663;52.040;4.634;2022-09-09T02:05:36;9.65;;;5.00;;
70997;SDS011;58663;52.040;4.634;2022-09-09T02:10:13;9.60;;;4.55;;
70997;SDS011;58663;52.040;4.634;2022-09-09T02:12:47;9.50;;;4.38;;
70997;SDS011;58663;52.040;4.634;2022-09-09T02:15:18;6.22;;;3.85;;
70997;SDS011;58663;52.040;4.634;2022-09-09T02:17:49;9.30;;;3.88;;
70997;SDS011;58663;52.040;4.634;2022-09-09T02:20:16;5.63;;;3.60;;
70997;SDS011;58663;52.040;4.634;2022-09-09T02:22:43;8.45;;;5.05;;
70997;SDS011;58663;52.040;4.634;2022-09-09T02:25:12;9.32;;;4.65;;
70997;SDS011;58663;52.040;4.634;2022-09-09T02:27:40;9.13;;;4.35;;
70997;SDS011;58663;52.040;4.634;2022-09-09T02:30:06;7.97;;;4.90;;
70997;SDS011;58663;52.040;4.634;2022-09-09T02:32:32;10.50;;;4.95;;
70997;SDS011;58663;52.040;4.634;2022-09-09T02:35:02;6.65;;;4.40;;
70997;SDS011;58663;52.040;4.634;2022-09-09T02:37:34;10.10;;;5.30;;
70997;SDS011;58663;52.040;4.634;2022-09-09T02:40:03;10.32;;;4.93;;
70997;SDS011;58663;52.040;4.634;2022-09-09T02:42:29;8.52;;;5.00;;
70997;SDS011;58663;52.040;4.634;2022-09-09T02:44:55;9.00;;;5.20;;
70997;SDS011;58663;52.040;4.634;2022-09-09T02:49:57;6.88;;;4.43;;
70997;SDS011;58663;52.040;4.634;2022-09-09T02:55:40;12.07;;;5.00;;
70997;SDS011;58663;52.040;4.634;2022-09-09T02:58:08;8.95;;;4.65;;
70997;SDS011;58663;52.040;4.634;2022-09-09T03:00:36;7.25;;;4.80;;
70997;SDS011;58663;52.040;4.634;2022-09-09T03:03:04;8.73;;;5.03;;
70997;SDS011;58663;52.040;4.634;2022-09-09T03:05:30;7.53;;;4.60;;
70997;SDS011;58663;52.040;4.634;2022-09-09T03:07:56;9.52;;;4.90;;
70997;SDS011;58663;52.040;4.634;2022-09-09T03:10:22;7.47;;;4.50;;
70997;SDS011;58663;52.040;4.634;2022-09-09T03:12:48;6.60;;;4.70;;
70997;SDS011;58663;52.040;4.634;2022-09-09T03:15:14;12.25;;;5.32;;
70997;SDS011;58663;52.040;4.634;2022-09-09T03:17:40;9.13;;;4.72;;
70997;SDS011;58663;52.040;4.634;2022-09-09T03:20:06;9.30;;;5.18;;
70997;SDS011;58663;52.040;4.634;2022-09-09T03:22:33;8.05;;;5.47;;
70997;SDS011;58663;52.040;4.634;2022-09-09T03:24:59;9.10;;;5.65;;
70997;SDS011;58663;52.040;4.634;2022-09-09T03:27:24;11.07;;;5.32;;
70997;SDS011;58663;52.040;4.634;2022-09-09T03:29:50;11.18;;;6.00;;
70997;SDS011;58663;52.040;4.634;2022-09-09T03:32:16;8.80;;;5.45;;
70997;SDS011;58663;52.040;4.634;2022-09-09T03:34:42;10.98;;;6.15;;
70997;SDS011;58663;52.040;4.634;2022-09-09T03:37:08;8.93;;;5.25;;
70997;SDS011;58663;52.040;4.634;2022-09-09T03:39:34;11.52;;;6.40;;
70997;SDS011;58663;52.040;4.634;2022-09-09T03:41:59;8.70;;;6.25;;
70997;SDS011;58663;52.040;4.634;2022-09-09T03:44:29;11.93;;;6.00;;
70997;SDS011;58663;52.040;4.634;2022-09-09T03:46:55;9.23;;;6.05;;
70997;SDS011;58663;52.040;4.634;2022-09-09T03:49:20;10.00;;;5.90;;
70997;SDS011;58663;52.040;4.634;2022-09-09T03:51:47;9.10;;;5.70;;
70997;SDS011;58663;52.040;4.634;2022-09-09T03:54:12;10.20;;;5.85;;
70997;SDS011;58663;52.040;4.634;2022-09-09T03:56:38;9.77;;;5.43;;
70997;SDS011;58663;52.040;4.634;2022-09-09T03:59:04;8.90;;;6.28;;
70997;SDS011;58663;52.040;4.634;2022-09-09T04:01:30;10.32;;;5.30;;
70997;SDS011;58663;52.040;4.634;2022-09-09T04:03:55;8.80;;;5.45;;
70997;SDS011;58663;52.040;4.634;2022-09-09T04:06:23;10.25;;;5.75;;
70997;SDS011;58663;52.040;4.634;2022-09-09T04:08:49;9.98;;;5.22;;
70997;SDS011;58663;52.040;4.634;2022-09-09T04:11:15;8.32;;;5.55;;
70997;SDS011;58663;52.040;4.634;2022-09-09T04:13:41;6.78;;;5.07;;
70997;SDS011;58663;52.040;4.634;2022-09-09T04:16:07;8.40;;;4.97;;
70997;SDS011;58663;52.040;4.634;2022-09-09T04:18:35;8.90;;;5.38;;
70997;SDS011;58663;52.040;4.634;2022-09-09T04:21:00;7.32;;;4.63;;
70997;SDS011;58663;52.040;4.634;2022-09-09T04:23:27;7.70;;;5.05;;
70997;SDS011;58663;52.040;4.634;2022-09-09T04:25:54;9.13;;;4.50;;
70997;SDS011;58663;52.040;4.634;2022-09-09T04:28:22;7.68;;;4.70;;
70997;SDS011;58663;52.040;4.634;2022-09-09T04:30:48;11.77;;;5.10;;
70997;SDS011;58663;52.040;4.634;2022-09-09T04:33:14;8.20;;;4.32;;
70997;SDS011;58663;52.040;4.634;2022-09-09T04:35:47;4.93;;;3.90;;
70997;SDS011;58663;52.040;4.634;2022-09-09T04:38:13;8.10;;;3.90;;
70997;SDS011;58663;52.040;4.634;2022-09-09T04:40:42;10.35;;;4.28;;
70997;SDS011;58663;52.040;4.634;2022-09-09T04:43:19;7.05;;;3.55;;
70997;SDS011;58663;52.040;4.634;2022-09-09T04:45:50;8.98;;;3.88;;
70997;SDS011;58663;52.040;4.634;2022-09-09T04:48:19;10.25;;;3.40;;
70997;SDS011;58663;52.040;4.634;2022-09-09T04:50:53;7.40;;;3.42;;
70997;SDS011;58663;52.040;4.634;2022-09-09T04:53:30;5.38;;;3.55;;
70997;SDS011;58663;52.040;4.634;2022-09-09T04:58:31;7.05;;;3.78;;
70997;SDS011;58663;52.040;4.634;2022-09-09T05:01:06;6.07;;;3.13;;
70997;SDS011;58663;52.040;4.634;2022-09-09T05:03:32;5.28;;;3.25;;
70997;SDS011;58663;52.040;4.634;2022-09-09T05:06:02;4.32;;;2.78;;
70997;SDS011;58663;52.040;4.634;2022-09-09T05:08:33;6.88;;;3.13;;
70997;SDS011;58663;52.040;4.634;2022-09-09T05:10:59;6.90;;;3.95;;
70997;SDS011;58663;52.040;4.634;2022-09-09T05:13:25;7.55;;;3.20;;
70997;SDS011;58663;52.040;4.634;2022-09-09T05:15:54;9.70;;;3.42;;
70997;SDS011;58663;52.040;4.634;2022-09-09T05:18:20;6.75;;;3.20;;
70997;SDS011;58663;52.040;4.634;2022-09-09T05:20:47;10.38;;;3.50;;
70997;SDS011;58663;52.040;4.634;2022-09-09T05:23:14;9.32;;;3.28;;
70997;SDS011;58663;52.040;4.634;2022-09-09T05:25:39;7.80;;;2.88;;
70997;SDS011;58663;52.040;4.634;2022-09-09T05:28:06;6.40;;;3.08;;
70997;SDS011;58663;52.040;4.634;2022-09-09T05:30:33;7.55;;;3.50;;
70997;SDS011;58663;52.040;4.634;2022-09-09T05:32:59;10.68;;;3.20;;
70997;SDS011;58663;52.040;4.634;2022-09-09T05:35:24;11.68;;;3.80;;
70997;SDS011;58663;52.040;4.634;2022-09-09T05:37:50;7.63;;;3.38;;
70997;SDS011;58663;52.040;4.634;2022-09-09T05:40:15;7.43;;;3.38;;
70997;SDS011;58663;52.040;4.634;2022-09-09T05:42:41;8.68;;;3.35;;
70997;SDS011;58663;52.040;4.634;2022-09-09T05:45:07;5.75;;;2.83;;
70997;SDS011;58663;52.040;4.634;2022-09-09T05:47:34;14.73;;;3.47;;
70997;SDS011;58663;52.040;4.634;2022-09-09T05:50:00;5.55;;;2.88;;
70997;SDS011;58663;52.040;4.634;2022-09-09T05:52:26;11.55;;;3.38;;
70997;SDS011;58663;52.040;4.634;2022-09-09T05:54:52;6.40;;;2.60;;
70997;SDS011;58663;52.040;4.634;2022-09-09T05:57:18;6.38;;;2.55;;
70997;SDS011;58663;52.040;4.634;2022-09-09T05:59:44;9.13;;;3.20;;
70997;SDS011;58663;52.040;4.634;2022-09-09T06:02:09;8.77;;;2.97;;
70997;SDS011;58663;52.040;4.634;2022-09-09T06:04:35;10.02;;;2.90;;
70997;SDS011;58663;52.040;4.634;2022-09-09T06:07:01;8.93;;;2.80;;
70997;SDS011;58663;52.040;4.634;2022-09-09T06:09:26;8.75;;;2.40;;
70997;SDS011;58663;52.040;4.634;2022-09-09T06:11:51;5.20;;;2.75;;
70997;SDS011;58663;52.040;4.634;2022-09-09T06:14:17;7.28;;;2.60;;
70997;SDS011;58663;52.040;4.634;2022-09-09T06:16:43;7.75;;;2.78;;
70997;SDS011;58663;52.040;4.634;2022-09-09T06:19:09;7.35;;;2.42;;
70997;SDS011;58663;52.040;4.634;2022-09-09T06:21:35;5.63;;;2.63;;
70997;SDS011;58663;52.040;4.634;2022-09-09T06:24:02;9.90;;;2.47;;
70997;SDS011;58663;52.040;4.634;2022-09-09T06:26:32;9.23;;;2.53;;
70997;SDS011;58663;52.040;4.634;2022-09-09T06:31:25;7.40;;;2.33;;
70997;SDS011;58663;52.040;4.634;2022-09-09T06:33:55;4.10;;;2.22;;
70997;SDS011;58663;52.040;4.634;2022-09-09T06:36:28;7.38;;;2.08;;
70997;SDS011;58663;52.040;4.634;2022-09-09T06:38:55;8.43;;;2.35;;
70997;SDS011;58663;52.040;4.634;2022-09-09T06:41:22;6.60;;;2.00;;
70997;SDS011;58663;52.040;4.634;2022-09-09T06:43:49;7.78;;;2.65;;
70997;SDS011;58663;52.040;4.634;2022-09-09T06:46:15;5.82;;;2.25;;
70997;SDS011;58663;52.040;4.634;2022-09-09T06:48:46;5.53;;;2.42;;
70997;SDS011;58663;52.040;4.634;2022-09-09T06:51:14;10.43;;;2.33;;
70997;SDS011;58663;52.040;4.634;2022-09-09T06:53:45;6.93;;;3.22;;
70997;SDS011;58663;52.040;4.634;2022-09-09T06:58:40;7.47;;;2.70;;
70997;SDS011;58663;52.040;4.634;2022-09-09T07:01:10;11.40;;;3.65;;
70997;SDS011;58663;52.040;4.634;2022-09-09T07:03:37;7.43;;;3.30;;
70997;SDS011;58663;52.040;4.634;2022-09-09T07:06:04;8.45;;;2.97;;
70997;SDS011;58663;52.040;4.634;2022-09-09T07:08:30;12.00;;;3.28;;
70997;SDS011;58663;52.040;4.634;2022-09-09T07:11:06;7.07;;;3.33;;
70997;SDS011;58663;52.040;4.634;2022-09-09T07:13:32;10.75;;;3.75;;
70997;SDS011;58663;52.040;4.634;2022-09-09T07:18:32;7.80;;;3.90;;
70997;SDS011;58663;52.040;4.634;2022-09-09T07:20:58;7.82;;;3.90;;
70997;SDS011;58663;52.040;4.634;2022-09-09T07:23:24;8.63;;;3.80;;
70997;SDS011;58663;52.040;4.634;2022-09-09T07:25:51;10.07;;;3.90;;
70997;SDS011;58663;52.040;4.634;2022-09-09T07:28:18;9.30;;;3.92;;
70997;SDS011;58663;52.040;4.634;2022-09-09T07:30:45;14.15;;;3.72;;
70997;SDS011;58663;52.040;4.634;2022-09-09T07:33:28;7.57;;;3.72;;
70997;SDS011;58663;52.040;4.634;2022-09-09T07:36:01;8.40;;;4.00;;
70997;SDS011;58663;52.040;4.634;2022-09-09T07:38:32;12.38;;;3.85;;
70997;SDS011;58663;52.040;4.634;2022-09-09T07:41:03;11.13;;;4.60;;
70997;SDS011;58663;52.040;4.634;2022-09-09T07:43:30;8.27;;;3.65;;
70997;SDS011;58663;52.040;4.634;2022-09-09T07:45:59;8.63;;;5.65;;
70997;SDS011;58663;52.040;4.634;2022-09-09T07:48:28;13.95;;;5.00;;
70997;SDS011;58663;52.040;4.634;2022-09-09T07:51:02;7.03;;;4.03;;
70997;SDS011;58663;52.040;4.634;2022-09-09T07:53:30;8.13;;;4.75;;
70997;SDS011;58663;52.040;4.634;2022-09-09T07:56:02;11.40;;;4.72;;
70997;SDS011;58663;52.040;4.634;2022-09-09T07:58:31;8.10;;;4.57;;
70997;SDS011;58663;52.040;4.634;2022-09-09T08:00:57;8.60;;;4.13;;
70997;SDS011;58663;52.040;4.634;2022-09-09T08:03:22;8.18;;;5.05;;
70997;SDS011;58663;52.040;4.634;2022-09-09T08:05:48;9.77;;;4.57;;
70997;SDS011;58663;52.040;4.634;2022-09-09T08:08:14;8.32;;;4.20;;
70997;SDS011;58663;52.040;4.634;2022-09-09T08:10:41;10.70;;;5.03;;
70997;SDS011;58663;52.040;4.634;2022-09-09T08:13:06;6.93;;;4.35;;
70997;SDS011;58663;52.040;4.634;2022-09-09T08:15:33;11.00;;;4.43;;
70997;SDS011;58663;52.040;4.634;2022-09-09T08:17:59;13.00;;;5.35;;
70997;SDS011;58663;52.040;4.634;2022-09-09T08:20:24;8.05;;;4.47;;
70997;SDS011;58663;52.040;4.634;2022-09-09T08:22:50;12.07;;;4.47;;
70997;SDS011;58663;52.040;4.634;2022-09-09T08:25:15;10.02;;;4.60;;
70997;SDS011;58663;52.040;4.634;2022-09-09T08:27:41;11.70;;;4.50;;
70997;SDS011;58663;52.040;4.634;2022-09-09T08:30:06;8.05;;;3.90;;
70997;SDS011;58663;52.040;4.634;2022-09-09T08:32:32;9.63;;;3.90;;
70997;SDS011;58663;52.040;4.634;2022-09-09T08:35:00;9.48;;;4.15;;
70997;SDS011;58663;52.040;4.634;2022-09-09T08:37:25;10.25;;;3.60;;
70997;SDS011;58663;52.040;4.634;2022-09-09T08:39:51;7.78;;;4.03;;
70997;SDS011;58663;52.040;4.634;2022-09-09T08:44:52;11.25;;;4.57;;
70997;SDS011;58663;52.040;4.634;2022-09-09T08:55:23;8.80;;;3.97;;
70997;SDS011;58663;52.040;4.634;2022-09-09T08:58:23;7.40;;;3.67;;
70997;SDS011;58663;52.040;4.634;2022-09-09T09:12:15;11.65;;;4.70;;
70997;SDS011;58663;52.040;4.634;2022-09-09T09:14:41;6.07;;;3.70;;
70997;SDS011;58663;52.040;4.634;2022-09-09T09:17:13;7.28;;;3.88;;
70997;SDS011;58663;52.040;4.634;2022-09-09T09:19:40;8.98;;;4.05;;
70997;SDS011;58663;52.040;4.634;2022-09-09T09:22:19;7.45;;;3.40;;
70997;SDS011;58663;52.040;4.634;2022-09-09T09:24:53;8.13;;;3.60;;
70997;SDS011;58663;52.040;4.634;2022-09-09T09:27:33;7.18;;;3.35;;
70997;SDS011;58663;52.040;4.634;2022-09-09T09:30:29;5.82;;;3.70;;
70997;SDS011;58663;52.040;4.634;2022-09-09T09:33:02;10.00;;;3.63;;
70997;SDS011;58663;52.040;4.634;2022-09-09T09:35:33;12.35;;;4.40;;
70997;SDS011;58663;52.040;4.634;2022-09-09T09:37:59;5.15;;;3.60;;
70997;SDS011;58663;52.040;4.634;2022-09-09T09:40:26;7.97;;;3.83;;
70997;SDS011;58663;52.040;4.634;2022-09-09T09:42:55;6.68;;;3.53;;
70997;SDS011;58663;52.040;4.634;2022-09-09T09:45:31;7.43;;;3.58;;
70997;SDS011;58663;52.040;4.634;2022-09-09T09:48:03;6.88;;;3.20;;
70997;SDS011;58663;52.040;4.634;2022-09-09T09:50:30;6.65;;;3.25;;
70997;SDS011;58663;52.040;4.634;2022-09-09T09:52:57;7.15;;;3.38;;
70997;SDS011;58663;52.040;4.634;2022-09-09T09:55:25;9.00;;;3.38;;
70997;SDS011;58663;52.040;4.634;2022-09-09T09:57:50;12.45;;;3.63;;
70997;SDS011;58663;52.040;4.634;2022-09-09T10:00:21;9.75;;;3.45;;
70997;SDS011;58663;52.040;4.634;2022-09-09T10:02:48;5.97;;;3.28;;
70997;SDS011;58663;52.040;4.634;2022-09-09T10:07:47;5.07;;;2.70;;
70997;SDS011;58663;52.040;4.634;2022-09-09T10:10:37;11.50;;;2.97;;
70997;SDS011;58663;52.040;4.634;2022-09-09T10:18:42;8.27;;;3.05;;
70997;SDS011;58663;52.040;4.634;2022-09-09T10:49:00;3.67;;;2.25;;
70997;SDS011;58663;52.040;4.634;2022-09-09T10:51:35;6.72;;;2.63;;
70997;SDS011;58663;52.040;4.634;2022-09-09T10:54:10;4.85;;;2.88;;
70997;SDS011;58663;52.040;4.634;2022-09-09T10:56:39;4.65;;;2.28;;
70997;SDS011;58663;52.040;4.634;2022-09-09T10:59:08;6.13;;;3.22;;
70997;SDS011;58663;52.040;4.634;2022-09-09T11:01:39;8.82;;;2.67;;
70997;SDS011;58663;52.040;4.634;2022-09-09T11:06:41;4.25;;;2.72;;
70997;SDS011;58663;52.040;4.634;2022-09-09T11:09:14;5.40;;;3.15;;
70997;SDS011;58663;52.040;4.634;2022-09-09T11:11:47;6.68;;;2.90;;
70997;SDS011;58663;52.040;4.634;2022-09-09T11:14:26;7.70;;;3.25;;
70997;SDS011;58663;52.040;4.634;2022-09-09T11:16:58;9.38;;;3.28;;
70997;SDS011;58663;52.040;4.634;2022-09-09T11:19:36;7.45;;;3.55;;
70997;SDS011;58663;52.040;4.634;2022-09-09T11:24:56;5.57;;;2.92;;
70997;SDS011;58663;52.040;4.634;2022-09-09T11:27:36;3.78;;;2.47;;
70997;SDS011;58663;52.040;4.634;2022-09-09T11:33:15;4.82;;;2.88;;
70997;SDS011;58663;52.040;4.634;2022-09-09T11:43:28;7.20;;;3.63;;
70997;SDS011;58663;52.040;4.634;2022-09-09T11:48:42;5.65;;;2.95;;
70997;SDS011;58663;52.040;4.634;2022-09-09T11:51:25;4.13;;;2.75;;
70997;SDS011;58663;52.040;4.634;2022-09-09T11:53:55;6.15;;;2.97;;
70997;SDS011;58663;52.040;4.634;2022-09-09T11:56:33;5.95;;;3.55;;
70997;SDS011;58663;52.040;4.634;2022-09-09T11:59:04;5.30;;;2.90;;
70997;SDS011;58663;52.040;4.634;2022-09-09T12:07:01;5.70;;;3.50;;
70997;SDS011;58663;52.040;4.634;2022-09-09T12:15:23;12.55;;;4.43;;
70997;SDS011;58663;52.040;4.634;2022-09-09T12:17:52;12.65;;;4.60;;
70997;SDS011;58663;52.040;4.634;2022-09-09T12:22:51;4.97;;;4.18;;
70997;SDS011;58663;52.040;4.634;2022-09-09T12:33:45;10.07;;;4.97;;
70997;SDS011;58663;52.040;4.634;2022-09-09T12:36:16;7.55;;;4.55;;
70997;SDS011;58663;52.040;4.634;2022-09-09T12:39:15;8.77;;;4.40;;
70997;SDS011;58663;52.040;4.634;2022-09-09T12:41:50;7.75;;;4.65;;
70997;SDS011;58663;52.040;4.634;2022-09-09T12:44:21;9.85;;;4.65;;
70997;SDS011;58663;52.040;4.634;2022-09-09T12:46:47;9.40;;;4.07;;
70997;SDS011;58663;52.040;4.634;2022-09-09T12:49:30;11.38;;;5.15;;
70997;SDS011;58663;52.040;4.634;2022-09-09T12:52:23;9.50;;;4.60;;
70997;SDS011;58663;52.040;4.634;2022-09-09T12:54:55;9.23;;;4.70;;
70997;SDS011;58663;52.040;4.634;2022-09-09T12:57:22;8.52;;;4.72;;
70997;SDS011;58663;52.040;4.634;2022-09-09T12:59:50;10.60;;;4.70;;
70997;SDS011;58663;52.040;4.634;2022-09-09T13:04:49;10.75;;;3.85;;
70997;SDS011;58663;52.040;4.634;2022-09-09T13:07:16;8.15;;;4.32;;
70997;SDS011;58663;52.040;4.634;2022-09-09T13:09:44;7.10;;;4.05;;
70997;SDS011;58663;52.040;4.634;2022-09-09T13:12:14;5.43;;;3.60;;
70997;SDS011;58663;52.040;4.634;2022-09-09T13:14:43;4.43;;;3.28;;
70997;SDS011;58663;52.040;4.634;2022-09-09T13:17:15;4.88;;;3.53;;
70997;SDS011;58663;52.040;4.634;2022-09-09T13:19:44;5.53;;;3.53;;
70997;SDS011;58663;52.040;4.634;2022-09-09T13:25:02;6.55;;;3.65;;
70997;SDS011;58663;52.040;4.634;2022-09-09T13:27:34;5.43;;;3.13;;
70997;SDS011;58663;52.040;4.634;2022-09-09T13:30:25;6.78;;;2.83;;
70997;SDS011;58663;52.040;4.634;2022-09-09T13:35:54;3.28;;;2.13;;
70997;SDS011;58663;52.040;4.634;2022-09-09T13:38:25;4.50;;;2.00;;
70997;SDS011;58663;52.040;4.634;2022-09-09T13:40:52;5.45;;;2.00;;
70997;SDS011;58663;52.040;4.634;2022-09-09T13:43:23;2.88;;;1.73;;
70997;SDS011;58663;52.040;4.634;2022-09-09T13:45:56;2.08;;;1.67;;
70997;SDS011;58663;52.040;4.634;2022-09-09T13:48:27;3.25;;;1.55;;
70997;SDS011;58663;52.040;4.634;2022-09-09T13:50:53;2.53;;;1.50;;
70997;SDS011;58663;52.040;4.634;2022-09-09T13:53:22;4.68;;;1.88;;
70997;SDS011;58663;52.040;4.634;2022-09-09T13:55:47;3.67;;;1.73;;
70997;SDS011;58663;52.040;4.634;2022-09-09T13:58:14;2.92;;;1.52;;
70997;SDS011;58663;52.040;4.634;2022-09-09T14:00:40;5.13;;;2.83;;
70997;SDS011;58663;52.040;4.634;2022-09-09T14:03:06;5.57;;;2.00;;
70997;SDS011;58663;52.040;4.634;2022-09-09T14:05:32;5.18;;;2.50;;
70997;SDS011;58663;52.040;4.634;2022-09-09T14:07:59;4.88;;;2.22;;
70997;SDS011;58663;52.040;4.634;2022-09-09T14:10:25;5.60;;;2.08;;
70997;SDS011;58663;52.040;4.634;2022-09-09T14:12:51;3.65;;;1.70;;
70997;SDS011;58663;52.040;4.634;2022-09-09T14:15:18;1.85;;;1.48;;
70997;SDS011;58663;52.040;4.634;2022-09-09T14:17:45;3.45;;;1.58;;
70997;SDS011;58663;52.040;4.634;2022-09-09T14:20:10;3.55;;;1.60;;
70997;SDS011;58663;52.040;4.634;2022-09-09T14:22:37;3.60;;;1.80;;
70997;SDS011;58663;52.040;4.634;2022-09-09T14:25:04;5.57;;;1.75;;
70997;SDS011;58663;52.040;4.634;2022-09-09T14:27:31;6.78;;;3.30;;
70997;SDS011;58663;52.040;4.634;2022-09-09T14:29:57;3.38;;;2.10;;
70997;SDS011;58663;52.040;4.634;2022-09-09T14:32:23;3.63;;;2.08;;
70997;SDS011;58663;52.040;4.634;2022-09-09T14:34:48;7.53;;;2.55;;
70997;SDS011;58663;52.040;4.634;2022-09-09T14:37:15;4.53;;;2.13;;
70997;SDS011;58663;52.040;4.634;2022-09-09T14:39:42;3.55;;;1.98;;
70997;SDS011;58663;52.040;4.634;2022-09-09T14:42:09;4.15;;;2.20;;
70997;SDS011;58663;52.040;4.634;2022-09-09T14:44:37;3.20;;;1.98;;
70997;SDS011;58663;52.040;4.634;2022-09-09T14:47:04;5.55;;;2.10;;
70997;SDS011;58663;52.040;4.634;2022-09-09T14:49:35;4.40;;;1.90;;
70997;SDS011;58663;52.040;4.634;2022-09-09T14:52:02;4.05;;;2.42;;
70997;SDS011;58663;52.040;4.634;2022-09-09T14:54:29;4.07;;;1.70;;
70997;SDS011;58663;52.040;4.634;2022-09-09T14:56:55;2.60;;;1.85;;
70997;SDS011;58663;52.040;4.634;2022-09-09T14:59:21;4.80;;;2.25;;
70997;SDS011;58663;52.040;4.634;2022-09-09T15:01:47;5.00;;;1.80;;
70997;SDS011;58663;52.040;4.634;2022-09-09T15:04:12;3.80;;;1.77;;
70997;SDS011;58663;52.040;4.634;2022-09-09T15:06:39;4.20;;;1.20;;
70997;SDS011;58663;52.040;4.634;2022-09-09T15:09:07;5.93;;;1.23;;
70997;SDS011;58663;52.040;4.634;2022-09-09T15:11:34;2.20;;;1.23;;
70997;SDS011;58663;52.040;4.634;2022-09-09T15:14:05;1.70;;;1.00;;
70997;SDS011;58663;52.040;4.634;2022-09-09T15:16:32;6.07;;;1.42;;
70997;SDS011;58663;52.040;4.634;2022-09-09T15:18:58;5.68;;;1.27;;
70997;SDS011;58663;52.040;4.634;2022-09-09T15:21:25;3.40;;;1.30;;
70997;SDS011;58663;52.040;4.634;2022-09-09T15:23:52;5.72;;;1.10;;
70997;SDS011;58663;52.040;4.634;2022-09-09T15:26:18;5.30;;;1.02;;
70997;SDS011;58663;52.040;4.634;2022-09-09T15:28:46;3.53;;;1.10;;
70997;SDS011;58663;52.040;4.634;2022-09-09T15:31:14;4.57;;;1.30;;
70997;SDS011;58663;52.040;4.634;2022-09-09T15:33:46;5.78;;;1.40;;
70997;SDS011;58663;52.040;4.634;2022-09-09T15:38:44;3.65;;;1.40;;
70997;SDS011;58663;52.040;4.634;2022-09-09T15:41:11;3.40;;;1.30;;
70997;SDS011;58663;52.040;4.634;2022-09-09T15:43:37;2.28;;;1.08;;
70997;SDS011;58663;52.040;4.634;2022-09-09T15:46:20;6.75;;;1.73;;
70997;SDS011;58663;52.040;4.634;2022-09-09T15:48:49;2.65;;;1.40;;
70997;SDS011;58663;52.040;4.634;2022-09-09T15:51:16;6.07;;;1.25;;
70997;SDS011;58663;52.040;4.634;2022-09-09T15:53:41;6.35;;;1.60;;
70997;SDS011;58663;52.040;4.634;2022-09-09T15:56:07;3.38;;;1.70;;
70997;SDS011;58663;52.040;4.634;2022-09-09T15:58:34;6.10;;;1.90;;
70997;SDS011;58663;52.040;4.634;2022-09-09T16:01:07;8.00;;;2.50;;
70997;SDS011;58663;52.040;4.634;2022-09-09T16:03:34;6.53;;;2.55;;
70997;SDS011;58663;52.040;4.634;2022-09-09T16:06:01;7.40;;;2.40;;
70997;SDS011;58663;52.040;4.634;2022-09-09T16:08:35;7.15;;;2.50;;
70997;SDS011;58663;52.040;4.634;2022-09-09T16:11:06;8.13;;;2.83;;
70997;SDS011;58663;52.040;4.634;2022-09-09T16:13:34;4.70;;;2.83;;
70997;SDS011;58663;52.040;4.634;2022-09-09T16:16:01;4.80;;;2.75;;
70997;SDS011;58663;52.040;4.634;2022-09-09T16:18:39;4.95;;;3.10;;
70997;SDS011;58663;52.040;4.634;2022-09-09T16:21:06;6.28;;;3.38;;
70997;SDS011;58663;52.040;4.634;2022-09-09T16:23:33;8.05;;;3.47;;
70997;SDS011;58663;52.040;4.634;2022-09-09T16:26:00;8.63;;;4.00;;
70997;SDS011;58663;52.040;4.634;2022-09-09T16:28:26;8.10;;;4.55;;
70997;SDS011;58663;52.040;4.634;2022-09-09T16:30:52;10.20;;;3.60;;
70997;SDS011;58663;52.040;4.634;2022-09-09T16:33:18;10.30;;;5.40;;
70997;SDS011;58663;52.040;4.634;2022-09-09T16:35:44;10.43;;;5.60;;
70997;SDS011;58663;52.040;4.634;2022-09-09T16:38:10;9.85;;;5.60;;
70997;SDS011;58663;52.040;4.634;2022-09-09T16:40:39;8.48;;;5.68;;
70997;SDS011;58663;52.040;4.634;2022-09-09T16:43:06;6.63;;;5.38;;
70997;SDS011;58663;52.040;4.634;2022-09-09T16:45:32;8.13;;;5.40;;
70997;SDS011;58663;52.040;4.634;2022-09-09T16:47:59;10.75;;;5.70;;
70997;SDS011;58663;52.040;4.634;2022-09-09T16:50:25;11.57;;;5.53;;
70997;SDS011;58663;52.040;4.634;2022-09-09T16:52:51;12.70;;;5.78;;
70997;SDS011;58663;52.040;4.634;2022-09-09T16:55:17;10.48;;;5.38;;
70997;SDS011;58663;52.040;4.634;2022-09-09T16:57:45;8.13;;;5.10;;
70997;SDS011;58663;52.040;4.634;2022-09-09T17:00:14;8.68;;;5.43;;
70997;SDS011;58663;52.040;4.634;2022-09-09T17:02:39;8.43;;;4.82;;
70997;SDS011;58663;52.040;4.634;2022-09-09T17:05:05;7.57;;;3.85;;
70997;SDS011;58663;52.040;4.634;2022-09-09T17:07:31;6.93;;;4.25;;
70997;SDS011;58663;52.040;4.634;2022-09-09T17:09:57;7.90;;;3.28;;
70997;SDS011;58663;52.040;4.634;2022-09-09T17:12:23;5.18;;;3.45;;
70997;SDS011;58663;52.040;4.634;2022-09-09T17:14:49;4.63;;;2.88;;
70997;SDS011;58663;52.040;4.634;2022-09-09T17:17:15;7.20;;;3.17;;
70997;SDS011;58663;52.040;4.634;2022-09-09T17:19:42;5.40;;;3.30;;
70997;SDS011;58663;52.040;4.634;2022-09-09T17:22:07;8.27;;;3.67;;
70997;SDS011;58663;52.040;4.634;2022-09-09T17:24:34;8.65;;;3.00;;
70997;SDS011;58663;52.040;4.634;2022-09-09T17:27:03;5.60;;;3.20;;
70997;SDS011;58663;52.040;4.634;2022-09-09T17:29:29;8.25;;;3.97;;
70997;SDS011;58663;52.040;4.634;2022-09-09T17:31:54;8.25;;;4.85;;
70997;SDS011;58663;52.040;4.634;2022-09-09T17:34:20;7.70;;;4.57;;
70997;SDS011;58663;52.040;4.634;2022-09-09T17:36:45;7.45;;;4.80;;
70997;SDS011;58663;52.040;4.634;2022-09-09T17:39:11;9.68;;;4.32;;
70997;SDS011;58663;52.040;4.634;2022-09-09T17:41:37;10.18;;;4.55;;
70997;SDS011;58663;52.040;4.634;2022-09-09T17:44:04;7.55;;;4.90;;
70997;SDS011;58663;52.040;4.634;2022-09-09T17:46:31;7.95;;;4.57;;